createdAt,value
2022-12-02T00:01:52.796Z,44.72
2022-12-02T00:04:28.732Z,46.22
2022-12-02T00:06:59.391Z,45.47
2022-12-02T00:09:30.429Z,47.80
2022-12-02T00:11:57.954Z,53.03
2022-12-02T00:14:29.857Z,46.28
2022-12-02T00:16:56.788Z,52.90
2022-12-02T00:19:23.399Z,46.17
2022-12-02T00:21:50.884Z,49.22
2022-12-02T00:24:18.089Z,48.88
2022-12-02T00:26:44.822Z,48.10
2022-12-02T00:29:11.287Z,50.63
2022-12-02T00:31:37.942Z,48.22
2022-12-02T00:34:04.977Z,54.00
2022-12-02T00:36:31.763Z,54.03
2022-12-02T00:38:58.148Z,51.80
2022-12-02T00:43:51.755Z,50.10
2022-12-02T00:46:18.199Z,41.65
2022-12-02T00:48:44.580Z,38.60
2022-12-02T00:53:37.130Z,50.70
2022-12-02T00:56:03.489Z,52.65
2022-12-02T01:00:56.099Z,57.83
2022-12-02T01:05:48.781Z,58.28
2022-12-02T01:10:41.491Z,51.97
2022-12-02T01:15:34.574Z,50.15
2022-12-02T01:18:00.948Z,51.40
2022-12-02T01:22:53.789Z,46.30
2022-12-02T01:27:46.435Z,47.28
2022-12-02T01:30:13.371Z,40.72
2022-12-02T01:32:39.815Z,55.95
2022-12-02T01:35:06.492Z,51.63
2022-12-02T01:37:32.856Z,52.05
2022-12-02T01:42:25.484Z,46.35
2022-12-02T01:47:19.172Z,32.72
2022-12-02T01:49:45.668Z,46.55
2022-12-02T01:52:12.104Z,45.67
2022-12-02T01:54:38.765Z,42.33
2022-12-02T01:57:10.692Z,46.47
2022-12-02T01:59:37.190Z,51.58
2022-12-02T02:02:03.824Z,47.33
2022-12-02T02:04:30.206Z,37.42
2022-12-02T02:09:22.820Z,42.53
2022-12-02T02:14:15.466Z,40.63
2022-12-02T02:19:13.359Z,46.67
2022-12-02T02:21:45.710Z,47.28
2022-12-02T02:24:12.083Z,46.65
2022-12-02T02:29:04.808Z,47.75
2022-12-02T02:33:57.425Z,44.65
2022-12-02T02:36:25.030Z,41.72
2022-12-02T02:38:51.450Z,37.60
2022-12-02T02:43:44.669Z,42.95
2022-12-02T02:46:11.319Z,36.28
2022-12-02T02:48:39.118Z,40.22
2022-12-02T02:51:07.100Z,39.13
2022-12-02T02:53:33.445Z,37.40
2022-12-02T02:58:27.077Z,39.22
2022-12-02T03:00:58.151Z,34.85
2022-12-02T03:03:27.829Z,37.20
2022-12-02T03:05:55.760Z,38.55
2022-12-02T03:08:23.680Z,39.38
2022-12-02T03:10:52.000Z,39.25
2022-12-02T03:13:18.702Z,38.88
2022-12-02T03:15:45.162Z,40.85
2022-12-02T03:18:12.337Z,40.30
2022-12-02T03:20:39.184Z,39.28
2022-12-02T03:23:05.728Z,33.95
2022-12-02T03:25:32.315Z,19.92
2022-12-02T03:27:58.873Z,39.17
2022-12-02T03:30:25.275Z,29.13
2022-12-02T03:35:18.090Z,30.58
2022-12-02T03:37:44.580Z,29.20
2022-12-02T03:40:11.737Z,32.70
2022-12-02T03:42:38.640Z,37.17
2022-12-02T03:45:05.501Z,42.70
2022-12-02T03:47:31.913Z,36.58
2022-12-02T03:52:25.133Z,39.92
2022-12-02T03:57:22.134Z,26.65
2022-12-02T03:59:48.607Z,31.88
2022-12-02T04:02:15.106Z,30.88
2022-12-02T04:04:41.452Z,17.02
2022-12-02T04:07:07.857Z,26.23
2022-12-02T04:12:00.452Z,35.95
2022-12-02T04:16:53.056Z,24.92
2022-12-02T04:21:45.648Z,15.20
2022-12-02T04:24:11.935Z,12.27
2022-12-02T04:26:43.405Z,13.57
2022-12-02T04:29:10.320Z,30.23
2022-12-02T04:34:02.979Z,14.20
2022-12-02T04:36:29.263Z,16.73
2022-12-02T04:38:55.551Z,16.50
2022-12-02T04:41:21.923Z,31.73
2022-12-02T04:43:48.260Z,28.58
2022-12-02T04:46:14.649Z,25.23
2022-12-02T04:51:07.273Z,26.52
2022-12-02T04:53:33.571Z,23.50
2022-12-02T04:55:59.926Z,19.58
2022-12-02T04:58:26.233Z,12.57
2022-12-02T05:00:52.563Z,23.20
2022-12-02T05:03:18.995Z,32.72
2022-12-02T05:05:45.358Z,20.05
2022-12-02T05:08:12.027Z,15.52
2022-12-02T05:10:38.485Z,25.52
2022-12-02T05:15:31.131Z,28.88
2022-12-02T05:17:57.479Z,24.70
2022-12-02T05:20:23.788Z,31.20
2022-12-02T05:22:50.286Z,23.65
2022-12-02T05:27:43.167Z,14.43
2022-12-02T05:30:11.544Z,31.35
2022-12-02T05:32:37.896Z,30.70
2022-12-02T05:35:04.752Z,27.70
2022-12-02T05:37:31.143Z,17.90
2022-12-02T05:39:59.248Z,27.20
2022-12-02T05:42:25.599Z,8.85
2022-12-02T05:44:52.135Z,23.60
2022-12-02T05:47:18.917Z,17.25
2022-12-02T05:49:46.709Z,26.80
2022-12-02T05:52:29.749Z,19.98
2022-12-02T05:54:59.010Z,8.13
2022-12-02T05:57:30.160Z,16.50
2022-12-02T06:00:08.849Z,21.42
2022-12-02T06:02:42.045Z,24.98
2022-12-02T06:05:20.211Z,11.65
2022-12-02T06:07:48.573Z,15.82
2022-12-02T06:10:30.003Z,10.02
2022-12-02T06:13:01.052Z,22.77
2022-12-02T06:15:34.792Z,13.50
2022-12-02T06:18:01.161Z,23.13
2022-12-02T06:20:32.792Z,32.30
2022-12-02T06:23:02.564Z,9.05
2022-12-02T06:25:31.171Z,17.05
2022-12-02T06:28:14.679Z,30.63
2022-12-02T06:30:41.027Z,14.95
2022-12-02T06:33:22.853Z,16.10
2022-12-02T06:35:49.656Z,23.08
2022-12-02T06:38:27.139Z,36.75
2022-12-02T06:40:53.668Z,32.30
2022-12-02T06:43:27.302Z,26.40
2022-12-02T06:45:54.030Z,16.10
2022-12-02T06:48:32.197Z,32.08
2022-12-02T06:51:11.093Z,14.18
2022-12-02T06:53:39.216Z,33.35
2022-12-02T06:56:12.967Z,33.88
2022-12-02T06:58:43.327Z,20.63
2022-12-02T07:01:15.735Z,30.25
2022-12-02T07:06:18.823Z,24.13
2022-12-02T07:08:45.939Z,24.85
2022-12-02T07:11:23.455Z,33.80
2022-12-02T07:13:49.819Z,24.70
2022-12-02T07:16:42.431Z,12.43
2022-12-02T07:19:15.579Z,23.10
2022-12-02T07:21:42.624Z,16.98
2022-12-02T07:24:18.407Z,18.67
2022-12-02T07:26:46.530Z,26.80
2022-12-02T07:29:29.868Z,15.98
2022-12-02T07:31:56.484Z,13.95
2022-12-02T07:34:23.001Z,21.88
2022-12-02T07:36:49.355Z,23.55
2022-12-02T07:39:15.705Z,21.85
2022-12-02T07:41:42.084Z,23.27
2022-12-02T07:44:08.393Z,27.05
2022-12-02T07:46:34.799Z,14.77
2022-12-02T07:51:27.496Z,28.52
2022-12-02T07:53:53.973Z,11.40
2022-12-02T08:01:32.941Z,25.83
2022-12-02T08:06:25.671Z,33.00
2022-12-02T08:11:18.470Z,18.98
2022-12-02T08:13:44.819Z,27.92
2022-12-02T08:16:11.235Z,11.60
2022-12-02T08:21:08.412Z,28.77
2022-12-02T08:23:35.654Z,23.13
2022-12-02T08:28:28.249Z,32.88
2022-12-02T08:30:54.659Z,30.40
2022-12-02T08:35:47.307Z,35.65
2022-12-02T08:38:13.750Z,30.33
2022-12-02T08:40:40.438Z,33.20
2022-12-02T08:43:06.796Z,43.42
2022-12-02T08:45:33.149Z,36.90
2022-12-02T08:48:01.504Z,38.95
2022-12-02T08:50:27.870Z,30.55
2022-12-02T08:52:58.283Z,40.88
2022-12-02T08:55:25.148Z,36.10
2022-12-02T09:00:20.282Z,26.25
2022-12-02T09:02:46.816Z,35.22
2022-12-02T09:05:13.953Z,27.35
2022-12-02T09:07:40.776Z,36.30
2022-12-02T09:10:08.629Z,24.05
2022-12-02T09:12:35.014Z,23.67
2022-12-02T09:17:27.625Z,32.97
2022-12-02T09:19:53.983Z,33.38
2022-12-02T09:22:20.367Z,31.85
2022-12-02T09:27:12.966Z,23.33
2022-12-02T09:29:39.332Z,39.88
2022-12-02T09:32:05.644Z,33.25
2022-12-02T09:34:32.211Z,31.20
2022-12-02T09:36:58.555Z,21.17
2022-12-02T09:39:25.100Z,38.33
2022-12-02T09:44:17.790Z,34.55
2022-12-02T09:49:11.228Z,27.63
2022-12-02T09:51:37.700Z,43.03
2022-12-02T09:56:30.509Z,30.33
2022-12-02T10:01:26.279Z,26.35
2022-12-02T10:03:52.840Z,26.20
2022-12-02T10:06:28.767Z,28.63
2022-12-02T10:08:57.350Z,27.38
2022-12-02T10:11:26.869Z,23.77
2022-12-02T10:13:54.753Z,32.75
2022-12-02T10:16:21.270Z,31.90
2022-12-02T10:18:48.348Z,25.02
2022-12-02T10:21:15.174Z,42.00
2022-12-02T10:23:59.863Z,40.88
2022-12-02T10:26:27.231Z,29.02
2022-12-02T10:29:07.840Z,21.00
2022-12-02T10:31:34.388Z,34.10
2022-12-02T10:34:03.892Z,35.70
2022-12-02T10:36:41.247Z,36.70
2022-12-02T10:39:31.350Z,39.55
2022-12-02T10:42:05.167Z,34.50
2022-12-02T10:44:33.160Z,26.00
2022-12-02T10:47:25.844Z,33.05
2022-12-02T10:49:55.667Z,28.92
2022-12-02T10:52:26.264Z,38.47
2022-12-02T10:54:54.627Z,31.90
2022-12-02T10:57:27.033Z,27.95
2022-12-02T10:59:55.506Z,26.42
2022-12-02T11:02:33.683Z,27.70
2022-12-02T11:05:13.308Z,28.45
2022-12-02T11:07:39.875Z,27.05
2022-12-02T11:10:07.065Z,37.13
2022-12-02T11:12:35.091Z,29.00
2022-12-02T11:15:05.032Z,36.70
2022-12-02T11:18:03.970Z,35.53
2022-12-02T11:20:45.303Z,27.20
2022-12-02T11:23:27.975Z,29.15
2022-12-02T11:26:13.579Z,29.00
2022-12-02T11:29:15.699Z,29.13
2022-12-02T11:31:42.286Z,30.27
2022-12-02T11:34:24.739Z,27.83
2022-12-02T11:37:26.293Z,28.50
2022-12-02T11:40:12.832Z,24.40
2022-12-02T11:42:40.826Z,25.35
2022-12-02T11:45:11.818Z,22.65
2022-12-02T11:47:39.320Z,23.17
2022-12-02T11:50:21.917Z,30.13
2022-12-02T11:52:58.398Z,25.85
2022-12-02T11:55:43.072Z,29.05
2022-12-02T11:58:26.407Z,27.40
2022-12-02T12:01:20.903Z,25.20
2022-12-02T12:03:49.280Z,23.27
2022-12-02T12:06:18.641Z,12.35
2022-12-02T12:08:50.455Z,18.10
2022-12-02T12:11:23.610Z,15.38
2022-12-02T12:14:25.596Z,15.77
2022-12-02T12:17:29.287Z,15.23
2022-12-02T12:19:55.626Z,17.13
2022-12-02T12:22:27.753Z,12.82
2022-12-02T12:24:54.286Z,14.40
2022-12-02T12:27:34.528Z,13.10
2022-12-02T12:30:01.083Z,15.75
2022-12-02T12:32:27.561Z,12.82
2022-12-02T12:34:54.884Z,12.73
2022-12-02T12:37:21.208Z,14.73
2022-12-02T12:39:47.529Z,15.88
2022-12-02T12:42:14.089Z,13.20
2022-12-02T12:44:40.470Z,15.43
2022-12-02T12:49:34.357Z,19.95
2022-12-02T12:52:01.715Z,14.95
2022-12-02T12:54:28.049Z,14.32
2022-12-02T12:56:54.380Z,13.30
2022-12-02T12:59:20.830Z,15.70
2022-12-02T13:01:47.199Z,15.93
2022-12-02T13:06:42.793Z,16.23
2022-12-02T13:09:10.127Z,12.80
2022-12-02T13:11:36.471Z,16.75
2022-12-02T13:14:02.838Z,19.55
2022-12-02T13:18:55.502Z,23.30
2022-12-02T13:23:48.138Z,18.75
2022-12-02T13:28:42.314Z,17.90
2022-12-02T13:31:08.866Z,20.17
2022-12-02T13:33:35.264Z,23.70
2022-12-02T13:36:01.633Z,17.92
2022-12-02T13:40:54.308Z,19.15
2022-12-02T13:45:47.041Z,18.13
2022-12-02T13:48:13.777Z,15.80
2022-12-02T13:50:40.355Z,22.83
2022-12-02T13:53:06.694Z,24.35
2022-12-02T13:57:59.301Z,24.30
2022-12-02T14:00:25.663Z,27.90
2022-12-02T14:05:18.181Z,29.90
2022-12-02T14:07:44.553Z,39.28
2022-12-02T14:12:37.381Z,38.92
2022-12-02T14:15:04.166Z,41.08
2022-12-02T14:17:30.539Z,32.13
2022-12-02T14:22:23.214Z,25.83
2022-12-02T14:24:49.603Z,36.22
2022-12-02T14:29:42.525Z,34.22
2022-12-02T14:34:35.366Z,42.03
2022-12-02T14:39:28.111Z,36.20
2022-12-02T14:44:20.823Z,31.55
2022-12-02T14:52:01.311Z,37.50
2022-12-02T14:56:53.973Z,41.35
2022-12-02T15:01:46.871Z,39.00
2022-12-02T15:06:39.571Z,41.17
2022-12-02T15:09:06.005Z,39.60
2022-12-02T15:13:58.802Z,39.92
2022-12-02T15:18:51.691Z,46.72
2022-12-02T15:23:44.448Z,45.28
2022-12-02T15:28:37.159Z,36.90
2022-12-02T15:33:29.905Z,43.60
2022-12-02T15:35:56.255Z,27.50
2022-12-02T15:38:22.628Z,43.00
2022-12-02T15:40:48.968Z,43.45
2022-12-02T15:43:15.333Z,42.03
2022-12-02T15:48:08.100Z,48.10
2022-12-02T15:53:00.888Z,30.25
2022-12-02T15:57:53.801Z,34.55
2022-12-02T16:02:51.263Z,31.10
2022-12-02T16:05:20.976Z,38.67
2022-12-02T16:07:47.577Z,44.10
2022-12-02T16:10:14.028Z,36.28
2022-12-02T16:15:07.132Z,32.55
2022-12-02T16:17:33.543Z,43.60
2022-12-02T16:22:26.606Z,35.75
2022-12-02T16:27:19.721Z,33.20
2022-12-02T16:32:16.960Z,24.98
2022-12-02T16:34:46.244Z,36.85
2022-12-02T16:37:12.951Z,31.33
2022-12-02T16:39:39.268Z,35.20
2022-12-02T16:42:05.829Z,38.90
2022-12-02T16:44:32.151Z,23.40
2022-12-02T16:46:58.564Z,27.73
2022-12-02T16:51:51.231Z,29.98
2022-12-02T16:54:17.568Z,22.75
2022-12-02T16:56:43.935Z,37.35
2022-12-02T17:01:36.540Z,26.55
2022-12-02T17:06:29.201Z,30.30
2022-12-02T17:08:56.188Z,31.60
2022-12-02T17:11:22.701Z,26.55
2022-12-02T17:16:15.366Z,38.25
2022-12-02T17:18:41.761Z,27.17
2022-12-02T17:21:08.069Z,26.67
2022-12-02T17:23:34.433Z,40.55
2022-12-02T17:28:27.067Z,30.73
2022-12-02T17:30:53.380Z,25.60
2022-12-02T17:33:19.730Z,28.23
2022-12-02T17:38:12.321Z,19.05
2022-12-02T17:40:38.662Z,24.85
2022-12-02T17:45:31.304Z,25.45
2022-12-02T17:50:23.953Z,28.00
2022-12-02T17:52:50.306Z,22.52
2022-12-02T17:55:16.786Z,26.83
2022-12-02T17:57:43.117Z,31.83
2022-12-02T18:00:10.624Z,33.53
2022-12-02T18:02:37.027Z,28.08
2022-12-02T18:07:29.865Z,36.88
2022-12-02T18:09:56.646Z,33.83
2022-12-02T18:12:23.038Z,27.13
2022-12-02T18:17:16.378Z,24.42
2022-12-02T18:19:42.771Z,28.67
2022-12-02T18:24:35.288Z,19.35
2022-12-02T18:27:01.655Z,26.67
2022-12-02T18:31:54.279Z,22.40
2022-12-02T18:34:21.827Z,24.40
2022-12-02T18:36:48.223Z,20.95
2022-12-02T18:41:40.918Z,26.45
2022-12-02T18:46:33.698Z,22.35
2022-12-02T18:49:00.182Z,28.40
2022-12-02T18:53:52.902Z,25.20
2022-12-02T18:58:50.876Z,16.05
2022-12-02T19:03:43.732Z,17.75
2022-12-02T19:08:36.413Z,25.52
2022-12-02T19:11:02.849Z,25.70
2022-12-02T19:15:55.713Z,14.75
2022-12-02T19:18:22.137Z,26.25
2022-12-02T19:20:48.544Z,18.52
2022-12-02T19:25:45.967Z,24.48
2022-12-02T19:28:16.043Z,15.13
2022-12-02T19:30:43.281Z,23.90
2022-12-02T19:33:09.685Z,21.30
2022-12-02T19:38:06.686Z,19.10
2022-12-02T19:40:41.049Z,18.02
2022-12-02T19:43:10.902Z,14.75
2022-12-02T19:48:03.753Z,16.20
2022-12-02T19:50:30.162Z,17.63
2022-12-02T19:55:22.846Z,14.20
2022-12-02T19:57:49.233Z,20.52
2022-12-02T20:02:43.016Z,18.90
2022-12-02T20:05:12.922Z,15.77
2022-12-02T20:07:39.518Z,17.17
2022-12-02T20:10:06.933Z,29.00
2022-12-02T20:12:33.476Z,22.75
2022-12-02T20:15:00.244Z,17.20
2022-12-02T20:17:26.606Z,14.70
2022-12-02T20:22:19.385Z,15.65
2022-12-02T20:27:12.224Z,13.48
2022-12-02T20:29:38.660Z,20.02
2022-12-02T20:32:05.197Z,13.85
2022-12-02T20:34:34.719Z,20.45
2022-12-02T20:37:01.373Z,19.27
2022-12-02T20:41:54.113Z,19.05
2022-12-02T20:46:46.935Z,12.57
2022-12-02T20:49:13.346Z,14.90
2022-12-02T20:54:06.228Z,17.20
2022-12-02T20:56:32.674Z,21.67
2022-12-02T21:01:25.459Z,10.63
2022-12-02T21:06:18.386Z,16.30
2022-12-02T21:11:11.239Z,17.08
2022-12-02T21:13:37.590Z,15.82
2022-12-02T21:18:34.968Z,20.00
2022-12-02T21:21:04.514Z,17.73
2022-12-02T21:23:30.936Z,13.27
2022-12-02T21:28:23.696Z,17.42
2022-12-02T21:33:17.323Z,16.98
2022-12-02T21:35:43.795Z,12.93
2022-12-02T21:40:36.462Z,23.02
2022-12-02T21:43:02.918Z,22.08
2022-12-02T21:45:29.361Z,22.73
2022-12-02T21:47:55.817Z,20.55
2022-12-02T21:52:48.513Z,16.30
2022-12-02T21:57:41.256Z,20.75
2022-12-02T22:02:34.518Z,13.52
2022-12-02T22:05:00.978Z,12.75
2022-12-02T22:09:53.919Z,18.90
2022-12-02T22:12:20.430Z,18.55
2022-12-02T22:14:46.842Z,10.02
2022-12-02T22:19:39.592Z,15.38
2022-12-02T22:24:32.255Z,13.52
2022-12-02T22:29:25.039Z,12.30
2022-12-02T22:34:17.903Z,24.77
2022-12-02T22:39:10.690Z,26.13
2022-12-02T22:44:03.470Z,22.10
2022-12-02T22:48:56.518Z,21.42
2022-12-02T22:56:15.946Z,15.77
2022-12-02T23:01:08.859Z,19.30
2022-12-02T23:03:35.440Z,15.60
2022-12-02T23:08:28.149Z,18.13
2022-12-02T23:13:21.098Z,20.67
2022-12-02T23:15:47.493Z,26.13
2022-12-02T23:20:40.264Z,22.98
2022-12-02T23:23:06.694Z,20.90
2022-12-02T23:27:59.588Z,22.48
2022-12-02T23:30:29.156Z,12.05
2022-12-02T23:32:59.277Z,11.32
2022-12-02T23:35:26.515Z,18.73
2022-12-02T23:37:53.082Z,11.18
2022-12-02T23:40:19.594Z,14.80
2022-12-02T23:42:46.064Z,13.75
2022-12-02T23:47:39.113Z,14.02
2022-12-02T23:50:06.790Z,20.33
2022-12-02T23:52:33.295Z,18.30
2022-12-02T23:54:59.676Z,14.77
2022-12-02T23:59:52.330Z,6.70
